Ithaca Tompkins Regional Airport Ithaca US
ICAO: KITH
IATA: ITH
Category: Medium
Scheduled Services: Yes

Elevation: 1099 ft
TransAlt. 18000 ft.

Airport Communications:
ELMIRA APP/DEP:124.3
ASOS:125.175
ATIS:125.175
CTAF:119.6
GND:121.8
BUFFALO RDO:111.8
TWR:119.6
UNICOM:122.95

KITH Zoom In..

Runways:

(A) RW 14 length 6977 ft width 150 ft
---- / hdg 145

(B) RW 15 length 2018 ft width 50 ft
---- / hdg 144

(C) RW 32 length 6977 ft width 150 ft
ILS 108.70 / hdg 325

(D) RW 33 length 2018 ft width 50 ft
---- / hdg 324

Location; KITH
Day. 22 / Time. 23.56 Zulu
* Altimeter: 29.91
* Temperature: 08° c. 46.4°f.
* Wind from: 140° Speed 10 kn with Gusts up to 18 kn.
Dewpoint: 06° c.
Visibility: 10 Statute Miles.
Clouds: Few 1000 ft.
Clouds: Overcast 11000 ft.

KITH 222356Z 14010G18KT 10SM FEW010 OVC110 08/06 A2991 RMK AO2 SLP136 60001 T00780061 10078 20061 58010


Wind From 140°
Speed 10 kn.

YouTube Music Video
 
jpsmedia.com for Web Design  worldairports.se 2018   terms of use